sensor_id;sensor_type;location;lat;lon;timestamp;P1;durP1;ratioP1;P2;durP2;ratioP2
7703;SDS011;3894;49.700;10.770;2023-10-08T00:00:49;7.15;;;1.73;;
7703;SDS011;3894;49.700;10.770;2023-10-08T00:03:15;6.13;;;1.73;;
7703;SDS011;3894;49.700;10.770;2023-10-08T00:05:42;5.43;;;1.55;;
7703;SDS011;3894;49.700;10.770;2023-10-08T00:08:11;6.70;;;1.65;;
7703;SDS011;3894;49.700;10.770;2023-10-08T00:10:39;7.15;;;1.38;;
7703;SDS011;3894;49.700;10.770;2023-10-08T00:13:06;7.38;;;2.08;;
7703;SDS011;3894;49.700;10.770;2023-10-08T00:15:34;7.32;;;1.17;;
7703;SDS011;3894;49.700;10.770;2023-10-08T00:18:01;6.95;;;1.35;;
7703;SDS011;3894;49.700;10.770;2023-10-08T00:20:31;6.05;;;1.50;;
7703;SDS011;3894;49.700;10.770;2023-10-08T00:23:07;6.43;;;1.90;;
7703;SDS011;3894;49.700;10.770;2023-10-08T00:25:34;7.70;;;1.70;;
7703;SDS011;3894;49.700;10.770;2023-10-08T00:28:05;5.10;;;1.17;;
7703;SDS011;3894;49.700;10.770;2023-10-08T00:30:37;5.60;;;1.73;;
7703;SDS011;3894;49.700;10.770;2023-10-08T00:33:04;5.57;;;1.65;;
7703;SDS011;3894;49.700;10.770;2023-10-08T00:35:30;7.25;;;1.50;;
7703;SDS011;3894;49.700;10.770;2023-10-08T00:37:55;6.78;;;1.63;;
7703;SDS011;3894;49.700;10.770;2023-10-08T00:40:25;5.65;;;1.58;;
7703;SDS011;3894;49.700;10.770;2023-10-08T00:43:01;6.45;;;1.52;;
7703;SDS011;3894;49.700;10.770;2023-10-08T00:45:38;6.53;;;1.50;;
7703;SDS011;3894;49.700;10.770;2023-10-08T00:48:10;6.28;;;1.90;;
7703;SDS011;3894;49.700;10.770;2023-10-08T00:50:41;4.22;;;1.23;;
7703;SDS011;3894;49.700;10.770;2023-10-08T00:53:08;6.93;;;1.52;;
7703;SDS011;3894;49.700;10.770;2023-10-08T00:55:47;6.72;;;2.30;;
7703;SDS011;3894;49.700;10.770;2023-10-08T00:58:19;5.10;;;1.00;;
7703;SDS011;3894;49.700;10.770;2023-10-08T01:00:54;7.20;;;1.45;;
7703;SDS011;3894;49.700;10.770;2023-10-08T01:03:26;5.57;;;1.30;;
7703;SDS011;3894;49.700;10.770;2023-10-08T01:05:52;6.25;;;1.65;;
7703;SDS011;3894;49.700;10.770;2023-10-08T01:08:22;6.20;;;1.23;;
7703;SDS011;3894;49.700;10.770;2023-10-08T01:11:15;6.57;;;1.33;;
7703;SDS011;3894;49.700;10.770;2023-10-08T01:13:42;6.68;;;1.42;;
7703;SDS011;3894;49.700;10.770;2023-10-08T01:16:10;5.85;;;1.60;;
7703;SDS011;3894;49.700;10.770;2023-10-08T01:18:36;6.07;;;1.67;;
7703;SDS011;3894;49.700;10.770;2023-10-08T01:21:02;10.02;;;1.83;;
7703;SDS011;3894;49.700;10.770;2023-10-08T01:23:33;5.53;;;1.40;;
7703;SDS011;3894;49.700;10.770;2023-10-08T01:25:58;6.82;;;1.30;;
7703;SDS011;3894;49.700;10.770;2023-10-08T01:28:35;7.95;;;1.65;;
7703;SDS011;3894;49.700;10.770;2023-10-08T01:31:01;7.30;;;1.60;;
7703;SDS011;3894;49.700;10.770;2023-10-08T01:33:29;6.70;;;1.73;;
7703;SDS011;3894;49.700;10.770;2023-10-08T01:38:28;5.05;;;1.23;;
7703;SDS011;3894;49.700;10.770;2023-10-08T01:40:54;5.50;;;1.63;;
7703;SDS011;3894;49.700;10.770;2023-10-08T01:43:21;6.00;;;1.52;;
7703;SDS011;3894;49.700;10.770;2023-10-08T01:45:47;6.00;;;1.48;;
7703;SDS011;3894;49.700;10.770;2023-10-08T01:48:15;7.55;;;1.60;;
7703;SDS011;3894;49.700;10.770;2023-10-08T01:50:48;6.28;;;2.03;;
7703;SDS011;3894;49.700;10.770;2023-10-08T01:53:14;6.45;;;1.52;;
7703;SDS011;3894;49.700;10.770;2023-10-08T01:55:41;6.68;;;1.40;;
7703;SDS011;3894;49.700;10.770;2023-10-08T01:58:14;6.25;;;1.25;;
7703;SDS011;3894;49.700;10.770;2023-10-08T02:00:44;6.28;;;2.33;;
7703;SDS011;3894;49.700;10.770;2023-10-08T02:03:11;8.40;;;1.63;;
7703;SDS011;3894;49.700;10.770;2023-10-08T02:05:40;5.82;;;1.55;;
7703;SDS011;3894;49.700;10.770;2023-10-08T02:08:07;6.57;;;1.55;;
7703;SDS011;3894;49.700;10.770;2023-10-08T02:10:33;6.38;;;1.83;;
7703;SDS011;3894;49.700;10.770;2023-10-08T02:13:00;5.03;;;1.40;;
7703;SDS011;3894;49.700;10.770;2023-10-08T02:15:26;5.63;;;1.38;;
7703;SDS011;3894;49.700;10.770;2023-10-08T02:17:52;8.05;;;1.70;;
7703;SDS011;3894;49.700;10.770;2023-10-08T02:22:46;7.35;;;1.52;;
7703;SDS011;3894;49.700;10.770;2023-10-08T02:27:39;6.95;;;1.60;;
7703;SDS011;3894;49.700;10.770;2023-10-08T02:30:06;5.18;;;1.10;;
7703;SDS011;3894;49.700;10.770;2023-10-08T02:32:34;5.75;;;1.48;;
7703;SDS011;3894;49.700;10.770;2023-10-08T02:35:01;5.00;;;1.27;;
7703;SDS011;3894;49.700;10.770;2023-10-08T02:37:27;5.20;;;1.27;;
7703;SDS011;3894;49.700;10.770;2023-10-08T02:39:53;6.28;;;1.77;;
7703;SDS011;3894;49.700;10.770;2023-10-08T02:42:19;7.03;;;1.30;;
7703;SDS011;3894;49.700;10.770;2023-10-08T02:44:46;6.03;;;1.25;;
7703;SDS011;3894;49.700;10.770;2023-10-08T02:47:12;6.88;;;1.50;;
7703;SDS011;3894;49.700;10.770;2023-10-08T02:49:45;4.72;;;1.17;;
7703;SDS011;3894;49.700;10.770;2023-10-08T02:52:13;8.20;;;1.73;;
7703;SDS011;3894;49.700;10.770;2023-10-08T02:54:41;6.18;;;1.27;;
7703;SDS011;3894;49.700;10.770;2023-10-08T02:57:06;6.00;;;1.45;;
7703;SDS011;3894;49.700;10.770;2023-10-08T02:59:35;7.18;;;1.45;;
7703;SDS011;3894;49.700;10.770;2023-10-08T03:02:10;5.85;;;1.23;;
7703;SDS011;3894;49.700;10.770;2023-10-08T03:04:43;6.72;;;1.77;;
7703;SDS011;3894;49.700;10.770;2023-10-08T03:07:10;7.03;;;2.00;;
7703;SDS011;3894;49.700;10.770;2023-10-08T03:09:46;7.40;;;1.70;;
7703;SDS011;3894;49.700;10.770;2023-10-08T03:12:14;6.40;;;1.45;;
7703;SDS011;3894;49.700;10.770;2023-10-08T03:14:40;6.68;;;1.60;;
7703;SDS011;3894;49.700;10.770;2023-10-08T03:17:26;6.30;;;1.33;;
7703;SDS011;3894;49.700;10.770;2023-10-08T03:19:55;6.20;;;1.83;;
7703;SDS011;3894;49.700;10.770;2023-10-08T03:22:44;7.13;;;1.70;;
7703;SDS011;3894;49.700;10.770;2023-10-08T03:25:11;6.78;;;1.92;;
7703;SDS011;3894;49.700;10.770;2023-10-08T03:27:41;6.57;;;1.42;;
7703;SDS011;3894;49.700;10.770;2023-10-08T03:30:08;5.45;;;1.38;;
7703;SDS011;3894;49.700;10.770;2023-10-08T03:32:39;5.53;;;0.98;;
7703;SDS011;3894;49.700;10.770;2023-10-08T03:35:07;8.13;;;1.77;;
7703;SDS011;3894;49.700;10.770;2023-10-08T03:37:35;5.90;;;2.13;;
7703;SDS011;3894;49.700;10.770;2023-10-08T03:40:06;5.45;;;1.30;;
7703;SDS011;3894;49.700;10.770;2023-10-08T03:42:49;6.18;;;1.42;;
7703;SDS011;3894;49.700;10.770;2023-10-08T03:45:15;6.38;;;1.35;;
7703;SDS011;3894;49.700;10.770;2023-10-08T03:47:47;7.32;;;2.22;;
7703;SDS011;3894;49.700;10.770;2023-10-08T03:50:28;5.90;;;1.42;;
7703;SDS011;3894;49.700;10.770;2023-10-08T03:53:08;5.90;;;1.52;;
7703;SDS011;3894;49.700;10.770;2023-10-08T03:55:38;7.30;;;1.80;;
7703;SDS011;3894;49.700;10.770;2023-10-08T03:58:07;5.18;;;1.55;;
7703;SDS011;3894;49.700;10.770;2023-10-08T04:00:38;8.90;;;2.00;;
7703;SDS011;3894;49.700;10.770;2023-10-08T04:03:08;6.28;;;1.70;;
7703;SDS011;3894;49.700;10.770;2023-10-08T04:05:37;5.18;;;1.10;;
7703;SDS011;3894;49.700;10.770;2023-10-08T04:08:17;6.95;;;2.10;;
7703;SDS011;3894;49.700;10.770;2023-10-08T04:10:44;5.53;;;1.60;;
7703;SDS011;3894;49.700;10.770;2023-10-08T04:13:10;6.05;;;1.45;;
7703;SDS011;3894;49.700;10.770;2023-10-08T04:15:36;6.05;;;1.92;;
7703;SDS011;3894;49.700;10.770;2023-10-08T04:18:06;7.95;;;1.85;;
7703;SDS011;3894;49.700;10.770;2023-10-08T04:20:33;6.07;;;2.08;;
7703;SDS011;3894;49.700;10.770;2023-10-08T04:23:05;4.53;;;1.35;;
7703;SDS011;3894;49.700;10.770;2023-10-08T04:25:38;7.35;;;1.85;;
7703;SDS011;3894;49.700;10.770;2023-10-08T04:28:07;7.03;;;1.67;;
7703;SDS011;3894;49.700;10.770;2023-10-08T04:30:38;7.60;;;2.33;;
7703;SDS011;3894;49.700;10.770;2023-10-08T04:33:07;8.35;;;1.67;;
7703;SDS011;3894;49.700;10.770;2023-10-08T04:35:36;6.78;;;1.50;;
7703;SDS011;3894;49.700;10.770;2023-10-08T04:38:09;5.88;;;1.70;;
7703;SDS011;3894;49.700;10.770;2023-10-08T04:40:36;6.38;;;2.25;;
7703;SDS011;3894;49.700;10.770;2023-10-08T04:43:13;6.60;;;1.50;;
7703;SDS011;3894;49.700;10.770;2023-10-08T04:45:55;7.28;;;1.50;;
7703;SDS011;3894;49.700;10.770;2023-10-08T04:48:22;5.30;;;1.60;;
7703;SDS011;3894;49.700;10.770;2023-10-08T04:50:54;6.97;;;1.90;;
7703;SDS011;3894;49.700;10.770;2023-10-08T04:53:24;7.38;;;1.98;;
7703;SDS011;3894;49.700;10.770;2023-10-08T04:55:56;6.03;;;1.65;;
7703;SDS011;3894;49.700;10.770;2023-10-08T04:58:31;5.60;;;1.40;;
7703;SDS011;3894;49.700;10.770;2023-10-08T05:01:01;6.57;;;1.58;;
7703;SDS011;3894;49.700;10.770;2023-10-08T05:03:51;5.65;;;1.60;;
7703;SDS011;3894;49.700;10.770;2023-10-08T05:11:44;7.45;;;1.63;;
7703;SDS011;3894;49.700;10.770;2023-10-08T05:14:17;5.72;;;1.50;;
7703;SDS011;3894;49.700;10.770;2023-10-08T05:16:55;6.32;;;1.52;;
7703;SDS011;3894;49.700;10.770;2023-10-08T05:19:39;7.20;;;1.80;;
7703;SDS011;3894;49.700;10.770;2023-10-08T05:22:07;6.32;;;2.05;;
7703;SDS011;3894;49.700;10.770;2023-10-08T05:27:33;7.45;;;1.85;;
7703;SDS011;3894;49.700;10.770;2023-10-08T05:30:25;9.23;;;1.70;;
7703;SDS011;3894;49.700;10.770;2023-10-08T05:33:07;5.13;;;1.42;;
7703;SDS011;3894;49.700;10.770;2023-10-08T05:35:43;6.13;;;1.90;;
7703;SDS011;3894;49.700;10.770;2023-10-08T05:38:11;7.03;;;1.95;;
7703;SDS011;3894;49.700;10.770;2023-10-08T05:40:42;7.72;;;1.95;;
7703;SDS011;3894;49.700;10.770;2023-10-08T05:43:24;6.57;;;1.92;;
7703;SDS011;3894;49.700;10.770;2023-10-08T05:46:08;6.32;;;2.15;;
7703;SDS011;3894;49.700;10.770;2023-10-08T05:49:01;6.90;;;1.70;;
7703;SDS011;3894;49.700;10.770;2023-10-08T05:51:38;5.80;;;1.33;;
7703;SDS011;3894;49.700;10.770;2023-10-08T05:54:12;10.57;;;2.22;;
7703;SDS011;3894;49.700;10.770;2023-10-08T05:56:58;7.45;;;1.90;;
7703;SDS011;3894;49.700;10.770;2023-10-08T06:02:20;8.13;;;1.92;;
7703;SDS011;3894;49.700;10.770;2023-10-08T06:05:05;7.25;;;2.30;;
7703;SDS011;3894;49.700;10.770;2023-10-08T06:07:49;6.38;;;2.00;;
7703;SDS011;3894;49.700;10.770;2023-10-08T06:18:21;5.93;;;1.83;;
7703;SDS011;3894;49.700;10.770;2023-10-08T06:20:51;7.03;;;1.83;;
7703;SDS011;3894;49.700;10.770;2023-10-08T06:23:21;4.68;;;1.40;;
7703;SDS011;3894;49.700;10.770;2023-10-08T06:28:24;6.78;;;1.98;;
7703;SDS011;3894;49.700;10.770;2023-10-08T06:30:52;7.13;;;1.98;;
7703;SDS011;3894;49.700;10.770;2023-10-08T06:35:44;6.70;;;1.85;;
7703;SDS011;3894;49.700;10.770;2023-10-08T06:38:10;6.38;;;2.03;;
7703;SDS011;3894;49.700;10.770;2023-10-08T06:40:36;5.80;;;2.15;;
7703;SDS011;3894;49.700;10.770;2023-10-08T06:43:02;6.07;;;1.45;;
7703;SDS011;3894;49.700;10.770;2023-10-08T06:45:44;6.82;;;2.08;;
7703;SDS011;3894;49.700;10.770;2023-10-08T06:48:12;9.70;;;2.50;;
7703;SDS011;3894;49.700;10.770;2023-10-08T06:50:50;5.40;;;1.85;;
7703;SDS011;3894;49.700;10.770;2023-10-08T06:53:20;9.15;;;1.70;;
7703;SDS011;3894;49.700;10.770;2023-10-08T06:55:47;6.28;;;1.73;;
7703;SDS011;3894;49.700;10.770;2023-10-08T06:58:24;7.50;;;2.03;;
7703;SDS011;3894;49.700;10.770;2023-10-08T07:00:51;6.18;;;1.67;;
7703;SDS011;3894;49.700;10.770;2023-10-08T07:03:17;6.20;;;1.88;;
7703;SDS011;3894;49.700;10.770;2023-10-08T07:05:44;6.30;;;2.05;;
7703;SDS011;3894;49.700;10.770;2023-10-08T07:08:19;7.70;;;2.10;;
7703;SDS011;3894;49.700;10.770;2023-10-08T07:10:48;4.68;;;1.55;;
7703;SDS011;3894;49.700;10.770;2023-10-08T07:13:16;6.53;;;1.42;;
7703;SDS011;3894;49.700;10.770;2023-10-08T07:15:43;6.25;;;2.30;;
7703;SDS011;3894;49.700;10.770;2023-10-08T07:18:10;8.50;;;2.30;;
7703;SDS011;3894;49.700;10.770;2023-10-08T07:20:39;6.22;;;2.00;;
7703;SDS011;3894;49.700;10.770;2023-10-08T07:23:06;8.38;;;2.05;;
7703;SDS011;3894;49.700;10.770;2023-10-08T07:25:44;6.18;;;1.90;;
7703;SDS011;3894;49.700;10.770;2023-10-08T07:28:17;8.48;;;1.95;;
7703;SDS011;3894;49.700;10.770;2023-10-08T07:30:44;6.18;;;2.17;;
7703;SDS011;3894;49.700;10.770;2023-10-08T07:33:11;10.00;;;2.05;;
7703;SDS011;3894;49.700;10.770;2023-10-08T07:35:43;7.30;;;2.08;;
7703;SDS011;3894;49.700;10.770;2023-10-08T07:38:36;7.10;;;1.90;;
7703;SDS011;3894;49.700;10.770;2023-10-08T07:41:11;8.13;;;1.88;;
7703;SDS011;3894;49.700;10.770;2023-10-08T07:43:39;6.53;;;2.22;;
7703;SDS011;3894;49.700;10.770;2023-10-08T07:46:09;7.40;;;2.25;;
7703;SDS011;3894;49.700;10.770;2023-10-08T07:48:35;8.50;;;2.10;;
7703;SDS011;3894;49.700;10.770;2023-10-08T07:51:07;7.38;;;2.15;;
7703;SDS011;3894;49.700;10.770;2023-10-08T07:53:32;6.97;;;2.25;;
7703;SDS011;3894;49.700;10.770;2023-10-08T07:56:06;5.13;;;1.90;;
7703;SDS011;3894;49.700;10.770;2023-10-08T07:58:35;7.38;;;2.28;;
7703;SDS011;3894;49.700;10.770;2023-10-08T08:01:04;7.13;;;2.13;;
7703;SDS011;3894;49.700;10.770;2023-10-08T08:03:35;9.30;;;2.25;;
7703;SDS011;3894;49.700;10.770;2023-10-08T08:06:08;5.32;;;1.40;;
7703;SDS011;3894;49.700;10.770;2023-10-08T08:08:37;6.63;;;1.73;;
7703;SDS011;3894;49.700;10.770;2023-10-08T08:11:07;5.10;;;1.83;;
7703;SDS011;3894;49.700;10.770;2023-10-08T08:13:42;5.88;;;1.90;;
7703;SDS011;3894;49.700;10.770;2023-10-08T08:16:11;7.32;;;1.88;;
7703;SDS011;3894;49.700;10.770;2023-10-08T08:18:46;6.07;;;1.92;;
7703;SDS011;3894;49.700;10.770;2023-10-08T08:21:14;6.68;;;1.90;;
7703;SDS011;3894;49.700;10.770;2023-10-08T08:23:45;7.03;;;2.47;;
7703;SDS011;3894;49.700;10.770;2023-10-08T08:26:14;6.25;;;2.13;;
7703;SDS011;3894;49.700;10.770;2023-10-08T08:28:57;7.78;;;2.20;;
7703;SDS011;3894;49.700;10.770;2023-10-08T08:31:25;7.75;;;2.25;;
7703;SDS011;3894;49.700;10.770;2023-10-08T08:33:52;6.40;;;1.95;;
7703;SDS011;3894;49.700;10.770;2023-10-08T08:36:19;8.25;;;2.97;;
7703;SDS011;3894;49.700;10.770;2023-10-08T08:38:54;8.35;;;3.05;;
7703;SDS011;3894;49.700;10.770;2023-10-08T08:41:20;10.75;;;2.60;;
7703;SDS011;3894;49.700;10.770;2023-10-08T08:43:49;8.50;;;2.10;;
7703;SDS011;3894;49.700;10.770;2023-10-08T08:46:21;8.50;;;2.33;;
7703;SDS011;3894;49.700;10.770;2023-10-08T08:48:53;7.35;;;3.00;;
7703;SDS011;3894;49.700;10.770;2023-10-08T08:51:20;8.43;;;2.35;;
7703;SDS011;3894;49.700;10.770;2023-10-08T08:53:48;7.00;;;1.90;;
7703;SDS011;3894;49.700;10.770;2023-10-08T08:56:14;8.75;;;2.97;;
7703;SDS011;3894;49.700;10.770;2023-10-08T08:58:41;7.10;;;1.83;;
7703;SDS011;3894;49.700;10.770;2023-10-08T09:01:09;8.50;;;2.80;;
7703;SDS011;3894;49.700;10.770;2023-10-08T09:03:38;7.57;;;2.65;;
7703;SDS011;3894;49.700;10.770;2023-10-08T09:06:04;10.43;;;2.17;;
7703;SDS011;3894;49.700;10.770;2023-10-08T09:08:37;7.28;;;2.05;;
7703;SDS011;3894;49.700;10.770;2023-10-08T09:11:06;6.70;;;1.98;;
7703;SDS011;3894;49.700;10.770;2023-10-08T09:13:33;7.70;;;2.47;;
7703;SDS011;3894;49.700;10.770;2023-10-08T09:16:02;8.15;;;2.47;;
7703;SDS011;3894;49.700;10.770;2023-10-08T09:18:32;7.57;;;1.85;;
7703;SDS011;3894;49.700;10.770;2023-10-08T09:21:07;7.85;;;2.40;;
7703;SDS011;3894;49.700;10.770;2023-10-08T09:23:42;9.25;;;2.78;;
7703;SDS011;3894;49.700;10.770;2023-10-08T09:26:11;8.57;;;2.72;;
7703;SDS011;3894;49.700;10.770;2023-10-08T09:28:40;8.90;;;1.92;;
7703;SDS011;3894;49.700;10.770;2023-10-08T09:31:13;7.65;;;2.42;;
7703;SDS011;3894;49.700;10.770;2023-10-08T09:33:40;7.35;;;2.03;;
7703;SDS011;3894;49.700;10.770;2023-10-08T09:36:06;5.88;;;2.25;;
7703;SDS011;3894;49.700;10.770;2023-10-08T09:38:35;7.70;;;2.05;;
7703;SDS011;3894;49.700;10.770;2023-10-08T09:41:02;5.85;;;1.67;;
7703;SDS011;3894;49.700;10.770;2023-10-08T09:43:29;8.02;;;2.35;;
7703;SDS011;3894;49.700;10.770;2023-10-08T09:46:00;6.97;;;2.13;;
7703;SDS011;3894;49.700;10.770;2023-10-08T09:48:38;11.63;;;2.60;;
7703;SDS011;3894;49.700;10.770;2023-10-08T09:51:07;7.65;;;2.38;;
7703;SDS011;3894;49.700;10.770;2023-10-08T09:53:47;10.57;;;2.80;;
7703;SDS011;3894;49.700;10.770;2023-10-08T09:56:35;8.02;;;1.70;;
7703;SDS011;3894;49.700;10.770;2023-10-08T09:59:01;7.78;;;2.42;;
7703;SDS011;3894;49.700;10.770;2023-10-08T10:01:27;8.65;;;2.47;;
7703;SDS011;3894;49.700;10.770;2023-10-08T10:03:53;8.23;;;2.70;;
7703;SDS011;3894;49.700;10.770;2023-10-08T10:06:20;6.82;;;2.38;;
7703;SDS011;3894;49.700;10.770;2023-10-08T10:08:47;8.77;;;2.30;;
7703;SDS011;3894;49.700;10.770;2023-10-08T10:11:13;11.30;;;2.83;;
7703;SDS011;3894;49.700;10.770;2023-10-08T10:13:44;7.55;;;2.38;;
7703;SDS011;3894;49.700;10.770;2023-10-08T10:16:18;7.18;;;2.17;;
7703;SDS011;3894;49.700;10.770;2023-10-08T10:18:48;11.98;;;3.05;;
7703;SDS011;3894;49.700;10.770;2023-10-08T10:23:41;11.52;;;2.80;;
7703;SDS011;3894;49.700;10.770;2023-10-08T10:26:30;8.88;;;2.78;;
7703;SDS011;3894;49.700;10.770;2023-10-08T10:31:40;5.97;;;1.77;;
7703;SDS011;3894;49.700;10.770;2023-10-08T10:34:13;7.78;;;2.47;;
7703;SDS011;3894;49.700;10.770;2023-10-08T10:36:41;11.80;;;3.17;;
7703;SDS011;3894;49.700;10.770;2023-10-08T10:39:07;6.72;;;3.00;;
7703;SDS011;3894;49.700;10.770;2023-10-08T10:41:45;8.48;;;2.58;;
7703;SDS011;3894;49.700;10.770;2023-10-08T10:44:13;6.93;;;2.28;;
7703;SDS011;3894;49.700;10.770;2023-10-08T10:46:45;8.13;;;2.55;;
7703;SDS011;3894;49.700;10.770;2023-10-08T10:49:37;7.60;;;3.00;;
7703;SDS011;3894;49.700;10.770;2023-10-08T10:52:19;7.53;;;2.55;;
7703;SDS011;3894;49.700;10.770;2023-10-08T10:55:06;7.00;;;2.40;;
7703;SDS011;3894;49.700;10.770;2023-10-08T10:57:56;7.18;;;2.85;;
7703;SDS011;3894;49.700;10.770;2023-10-08T11:00:42;7.22;;;2.90;;
7703;SDS011;3894;49.700;10.770;2023-10-08T11:03:08;6.95;;;2.22;;
7703;SDS011;3894;49.700;10.770;2023-10-08T11:05:49;7.80;;;2.55;;
7703;SDS011;3894;49.700;10.770;2023-10-08T11:08:24;7.47;;;2.80;;
7703;SDS011;3894;49.700;10.770;2023-10-08T11:10:51;8.63;;;3.17;;
7703;SDS011;3894;49.700;10.770;2023-10-08T11:13:20;8.70;;;2.65;;
7703;SDS011;3894;49.700;10.770;2023-10-08T11:15:47;10.68;;;2.38;;
7703;SDS011;3894;49.700;10.770;2023-10-08T11:18:26;7.15;;;3.05;;
7703;SDS011;3894;49.700;10.770;2023-10-08T11:21:04;9.27;;;2.85;;
7703;SDS011;3894;49.700;10.770;2023-10-08T11:23:57;11.55;;;3.25;;
7703;SDS011;3894;49.700;10.770;2023-10-08T11:26:24;7.50;;;2.47;;
7703;SDS011;3894;49.700;10.770;2023-10-08T11:29:00;7.88;;;2.85;;
7703;SDS011;3894;49.700;10.770;2023-10-08T11:31:28;6.50;;;2.88;;
7703;SDS011;3894;49.700;10.770;2023-10-08T11:34:03;6.78;;;2.45;;
7703;SDS011;3894;49.700;10.770;2023-10-08T11:36:33;6.03;;;2.50;;
7703;SDS011;3894;49.700;10.770;2023-10-08T11:53:54;8.70;;;2.03;;
7703;SDS011;3894;49.700;10.770;2023-10-08T11:56:51;8.63;;;2.00;;
7703;SDS011;3894;49.700;10.770;2023-10-08T12:05:11;7.18;;;2.00;;
7703;SDS011;3894;49.700;10.770;2023-10-08T12:15:00;7.40;;;2.20;;
7703;SDS011;3894;49.700;10.770;2023-10-08T12:17:37;7.15;;;1.83;;
7703;SDS011;3894;49.700;10.770;2023-10-08T12:26:41;7.72;;;2.28;;
7703;SDS011;3894;49.700;10.770;2023-10-08T12:29:35;10.52;;;2.67;;
7703;SDS011;3894;49.700;10.770;2023-10-08T12:32:35;7.82;;;2.22;;
7703;SDS011;3894;49.700;10.770;2023-10-08T12:38:50;7.43;;;2.45;;
7703;SDS011;3894;49.700;10.770;2023-10-08T12:41:53;7.93;;;2.35;;
7703;SDS011;3894;49.700;10.770;2023-10-08T12:44:51;8.52;;;2.63;;
7703;SDS011;3894;49.700;10.770;2023-10-08T12:47:39;10.45;;;2.22;;
7703;SDS011;3894;49.700;10.770;2023-10-08T12:57:49;9.20;;;2.90;;
7703;SDS011;3894;49.700;10.770;2023-10-08T13:00:21;7.70;;;2.67;;
7703;SDS011;3894;49.700;10.770;2023-10-08T13:02:48;11.13;;;3.10;;
7703;SDS011;3894;49.700;10.770;2023-10-08T13:05:18;10.63;;;2.42;;
7703;SDS011;3894;49.700;10.770;2023-10-08T13:07:53;8.57;;;3.10;;
7703;SDS011;3894;49.700;10.770;2023-10-08T13:10:20;9.20;;;3.25;;
7703;SDS011;3894;49.700;10.770;2023-10-08T13:12:47;10.35;;;2.63;;
7703;SDS011;3894;49.700;10.770;2023-10-08T13:15:13;9.95;;;2.72;;
7703;SDS011;3894;49.700;10.770;2023-10-08T13:17:38;8.35;;;3.42;;
7703;SDS011;3894;49.700;10.770;2023-10-08T13:20:11;7.28;;;2.40;;
7703;SDS011;3894;49.700;10.770;2023-10-08T13:22:40;8.85;;;2.83;;
7703;SDS011;3894;49.700;10.770;2023-10-08T13:25:06;10.43;;;2.65;;
7703;SDS011;3894;49.700;10.770;2023-10-08T13:27:33;8.38;;;1.95;;
7703;SDS011;3894;49.700;10.770;2023-10-08T13:29:58;6.80;;;1.55;;
7703;SDS011;3894;49.700;10.770;2023-10-08T13:32:25;8.98;;;2.17;;
7703;SDS011;3894;49.700;10.770;2023-10-08T13:34:51;5.85;;;1.30;;
7703;SDS011;3894;49.700;10.770;2023-10-08T13:37:16;4.85;;;0.93;;
7703;SDS011;3894;49.700;10.770;2023-10-08T13:39:42;5.45;;;1.15;;
7703;SDS011;3894;49.700;10.770;2023-10-08T13:42:08;6.43;;;1.50;;
7703;SDS011;3894;49.700;10.770;2023-10-08T13:44:33;4.95;;;1.00;;
7703;SDS011;3894;49.700;10.770;2023-10-08T13:47:00;4.85;;;0.70;;
7703;SDS011;3894;49.700;10.770;2023-10-08T13:49:30;5.22;;;1.17;;
7703;SDS011;3894;49.700;10.770;2023-10-08T13:51:57;5.00;;;0.80;;
7703;SDS011;3894;49.700;10.770;2023-10-08T13:54:23;3.58;;;0.60;;
7703;SDS011;3894;49.700;10.770;2023-10-08T13:56:55;5.20;;;0.90;;
7703;SDS011;3894;49.700;10.770;2023-10-08T13:59:21;3.85;;;0.93;;
7703;SDS011;3894;49.700;10.770;2023-10-08T14:01:49;4.60;;;1.25;;
7703;SDS011;3894;49.700;10.770;2023-10-08T14:04:19;4.38;;;0.80;;
7703;SDS011;3894;49.700;10.770;2023-10-08T14:06:48;4.45;;;0.93;;
7703;SDS011;3894;49.700;10.770;2023-10-08T14:09:17;4.75;;;0.98;;
7703;SDS011;3894;49.700;10.770;2023-10-08T14:12:02;3.72;;;1.00;;
7703;SDS011;3894;49.700;10.770;2023-10-08T14:14:28;4.78;;;1.30;;
7703;SDS011;3894;49.700;10.770;2023-10-08T14:16:54;5.10;;;1.70;;
7703;SDS011;3894;49.700;10.770;2023-10-08T14:19:24;5.25;;;1.00;;
7703;SDS011;3894;49.700;10.770;2023-10-08T14:22:03;4.97;;;1.17;;
7703;SDS011;3894;49.700;10.770;2023-10-08T14:24:33;5.85;;;1.02;;
7703;SDS011;3894;49.700;10.770;2023-10-08T14:27:02;3.97;;;0.68;;
7703;SDS011;3894;49.700;10.770;2023-10-08T14:29:40;4.32;;;1.27;;
7703;SDS011;3894;49.700;10.770;2023-10-08T14:32:09;5.70;;;1.50;;
7703;SDS011;3894;49.700;10.770;2023-10-08T14:34:38;5.40;;;1.52;;
7703;SDS011;3894;49.700;10.770;2023-10-08T14:37:12;5.13;;;1.20;;
7703;SDS011;3894;49.700;10.770;2023-10-08T14:39:57;5.03;;;0.80;;
7703;SDS011;3894;49.700;10.770;2023-10-08T14:42:41;4.97;;;0.85;;
7703;SDS011;3894;49.700;10.770;2023-10-08T14:45:34;4.32;;;0.90;;
7703;SDS011;3894;49.700;10.770;2023-10-08T14:48:00;4.85;;;1.05;;
7703;SDS011;3894;49.700;10.770;2023-10-08T14:50:27;4.68;;;0.52;;
7703;SDS011;3894;49.700;10.770;2023-10-08T14:52:56;4.28;;;0.68;;
7703;SDS011;3894;49.700;10.770;2023-10-08T14:55:22;4.30;;;0.77;;
7703;SDS011;3894;49.700;10.770;2023-10-08T14:57:49;3.90;;;0.52;;
7703;SDS011;3894;49.700;10.770;2023-10-08T15:00:18;4.15;;;0.65;;
7703;SDS011;3894;49.700;10.770;2023-10-08T15:02:49;5.28;;;0.98;;
7703;SDS011;3894;49.700;10.770;2023-10-08T15:05:16;4.68;;;1.17;;
7703;SDS011;3894;49.700;10.770;2023-10-08T15:07:42;5.50;;;0.82;;
7703;SDS011;3894;49.700;10.770;2023-10-08T15:10:08;4.13;;;0.50;;
7703;SDS011;3894;49.700;10.770;2023-10-08T15:12:34;3.22;;;0.85;;
7703;SDS011;3894;49.700;10.770;2023-10-08T15:15:00;4.28;;;0.60;;
7703;SDS011;3894;49.700;10.770;2023-10-08T15:17:37;4.35;;;0.57;;
7703;SDS011;3894;49.700;10.770;2023-10-08T15:20:10;3.38;;;0.40;;
7703;SDS011;3894;49.700;10.770;2023-10-08T15:22:44;3.15;;;0.40;;
7703;SDS011;3894;49.700;10.770;2023-10-08T15:25:11;3.15;;;0.63;;
7703;SDS011;3894;49.700;10.770;2023-10-08T15:27:41;3.22;;;0.60;;
7703;SDS011;3894;49.700;10.770;2023-10-08T15:30:09;3.90;;;0.63;;
7703;SDS011;3894;49.700;10.770;2023-10-08T15:32:40;4.15;;;1.00;;
7703;SDS011;3894;49.700;10.770;2023-10-08T15:35:11;2.95;;;0.40;;
7703;SDS011;3894;49.700;10.770;2023-10-08T15:37:45;3.15;;;0.60;;
7703;SDS011;3894;49.700;10.770;2023-10-08T15:40:12;3.92;;;0.60;;
7703;SDS011;3894;49.700;10.770;2023-10-08T15:42:42;3.80;;;0.47;;
7703;SDS011;3894;49.700;10.770;2023-10-08T15:45:09;2.42;;;0.25;;
7703;SDS011;3894;49.700;10.770;2023-10-08T15:47:37;2.70;;;0.47;;
7703;SDS011;3894;49.700;10.770;2023-10-08T15:50:03;3.60;;;0.50;;
7703;SDS011;3894;49.700;10.770;2023-10-08T15:52:30;3.95;;;0.43;;
7703;SDS011;3894;49.700;10.770;2023-10-08T15:54:56;2.58;;;0.40;;
7703;SDS011;3894;49.700;10.770;2023-10-08T15:57:22;3.50;;;0.60;;
7703;SDS011;3894;49.700;10.770;2023-10-08T15:59:48;5.55;;;0.95;;
7703;SDS011;3894;49.700;10.770;2023-10-08T16:02:15;4.05;;;0.88;;
7703;SDS011;3894;49.700;10.770;2023-10-08T16:04:41;4.00;;;0.50;;
7703;SDS011;3894;49.700;10.770;2023-10-08T16:07:06;4.55;;;0.50;;
7703;SDS011;3894;49.700;10.770;2023-10-08T16:09:32;4.55;;;0.60;;
7703;SDS011;3894;49.700;10.770;2023-10-08T16:11:57;3.53;;;0.55;;
7703;SDS011;3894;49.700;10.770;2023-10-08T16:14:24;4.53;;;0.65;;
7703;SDS011;3894;49.700;10.770;2023-10-08T16:16:50;2.90;;;0.82;;
7703;SDS011;3894;49.700;10.770;2023-10-08T16:19:16;4.03;;;0.90;;
7703;SDS011;3894;49.700;10.770;2023-10-08T16:21:42;5.05;;;0.40;;
7703;SDS011;3894;49.700;10.770;2023-10-08T16:24:09;3.38;;;0.40;;
7703;SDS011;3894;49.700;10.770;2023-10-08T16:26:37;3.03;;;0.52;;
7703;SDS011;3894;49.700;10.770;2023-10-08T16:29:09;3.88;;;0.70;;
7703;SDS011;3894;49.700;10.770;2023-10-08T16:31:38;5.28;;;0.80;;
7703;SDS011;3894;49.700;10.770;2023-10-08T16:34:07;3.45;;;0.50;;
7703;SDS011;3894;49.700;10.770;2023-10-08T16:36:41;4.28;;;0.40;;
7703;SDS011;3894;49.700;10.770;2023-10-08T16:39:08;2.85;;;0.47;;
7703;SDS011;3894;49.700;10.770;2023-10-08T16:41:36;6.32;;;1.42;;
7703;SDS011;3894;49.700;10.770;2023-10-08T16:44:05;4.55;;;0.63;;
7703;SDS011;3894;49.700;10.770;2023-10-08T16:46:30;4.03;;;0.70;;